Time;durP1;ratioP1;P1;durP2;ratioP2;P2;SDS_P1;SDS_P2;PMS_P1;PMS_P2;Temp;Humidity;BMP_temperature;BMP_pressure;BME280_temperature;BME280_humidity;BME280_pressure;Samples;Min_cycle;Max_cycle;Signal;HPM_P1;HPM_P2
2022/01/31 00:00:27;;;;;;;19.85;5.35;;;4.30;99.90;;;;;;5008997;28;20041;-91
2022/01/31 00:02:52;;;;;;;19.70;4.68;;;4.40;99.90;;;;;;5010201;28;20037;-89
2022/01/31 00:05:18;;;;;;;19.90;5.07;;;4.30;99.90;;;;;;5025985;28;20468;-90
2022/01/31 00:07:44;;;;;;;17.60;5.90;;;4.40;99.90;;;;;;5008854;28;20103;-89
2022/01/31 00:10:11;;;;;;;18.52;5.57;;;4.40;99.90;;;;;;5008865;28;20053;-88
2022/01/31 00:12:54;;;;;;;16.77;5.20;;;4.40;99.90;;;;;;5009544;28;20037;-91
2022/01/31 00:15:19;;;;;;;20.00;6.30;;;4.40;99.90;;;;;;5006923;28;20052;-89
2022/01/31 00:17:45;;;;;;;19.08;5.70;;;4.40;99.90;;;;;;5026209;28;20049;-93
2022/01/31 00:20:11;;;;;;;18.77;6.45;;;4.40;99.90;;;;;;4993545;28;20132;-91
2022/01/31 00:22:36;;;;;;;16.33;5.55;;;4.40;99.90;;;;;;4991103;28;20089;-90
2022/01/31 00:25:02;;;;;;;16.05;5.82;;;4.40;99.90;;;;;;4973435;28;20417;-90
2022/01/31 00:27:27;;;;;;;19.50;5.70;;;4.30;99.90;;;;;;4992732;28;20061;-89
2022/01/31 00:29:53;;;;;;;20.77;6.35;;;4.30;99.90;;;;;;4989026;28;20065;-91
2022/01/31 00:32:18;;;;;;;19.77;5.88;;;4.30;99.90;;;;;;4996298;28;20058;-89
2022/01/31 00:34:44;;;;;;;17.73;5.95;;;4.30;99.90;;;;;;4990366;28;20038;-90
2022/01/31 00:37:10;;;;;;;18.45;6.38;;;4.30;99.90;;;;;;4993855;28;20054;-91
2022/01/31 00:39:36;;;;;;;18.80;6.35;;;4.30;99.90;;;;;;5013793;28;20076;-93
2022/01/31 00:42:05;;;;;;;20.17;7.22;;;4.30;99.90;;;;;;4987660;28;20118;-91
2022/01/31 00:44:47;;;;;;;18.92;6.75;;;4.30;99.90;;;;;;5009076;28;20046;-91
2022/01/31 00:47:22;;;;;;;21.10;7.05;;;4.40;99.90;;;;;;4993995;28;20402;-91
2022/01/31 00:50:08;;;;;;;16.20;6.40;;;4.40;99.90;;;;;;4993913;28;20048;-92
2022/01/31 00:52:34;;;;;;;18.33;6.85;;;4.40;99.90;;;;;;4995804;28;20081;-91
2022/01/31 00:55:01;;;;;;;19.45;7.07;;;4.40;99.90;;;;;;4990331;28;20026;-91
2022/01/31 00:57:26;;;;;;;24.80;8.30;;;4.40;99.90;;;;;;4984549;28;20923;-92
2022/01/31 00:59:53;;;;;;;21.77;6.53;;;4.40;99.90;;;;;;4983785;28;20093;-90
2022/01/31 01:02:20;;;;;;;17.80;6.53;;;4.40;99.90;;;;;;4983745;28;20110;-88
2022/01/31 01:04:45;;;;;;;18.45;7.57;;;4.50;99.90;;;;;;4987505;28;20488;-90
2022/01/31 01:07:11;;;;;;;21.27;8.13;;;4.40;99.90;;;;;;4994918;28;20131;-91
2022/01/31 01:09:37;;;;;;;18.13;7.18;;;4.40;99.90;;;;;;4991887;28;20402;-92
2022/01/31 01:12:04;;;;;;;20.35;8.23;;;4.40;99.90;;;;;;4997477;28;20049;-90
2022/01/31 01:14:30;;;;;;;16.05;7.80;;;4.40;99.90;;;;;;4993865;28;20046;-90
2022/01/31 01:16:56;;;;;;;24.27;8.02;;;4.40;99.90;;;;;;4997738;28;20517;-92
2022/01/31 01:19:22;;;;;;;16.92;8.20;;;4.40;99.90;;;;;;4990464;28;20054;-89
2022/01/31 01:21:48;;;;;;;19.58;8.35;;;4.40;99.90;;;;;;4986335;28;20053;-91
2022/01/31 01:24:15;;;;;;;19.17;8.43;;;4.40;99.90;;;;;;5008032;28;20479;-91
2022/01/31 01:26:41;;;;;;;19.10;8.52;;;4.40;99.90;;;;;;5029228;28;20046;-91
2022/01/31 01:29:07;;;;;;;24.23;9.70;;;4.40;99.90;;;;;;5018840;28;20045;-89
2022/01/31 01:31:32;;;;;;;20.40;9.32;;;4.40;99.90;;;;;;5029567;28;20053;-90
2022/01/31 01:33:58;;;;;;;19.70;9.13;;;4.40;99.90;;;;;;5015635;28;20048;-89
2022/01/31 01:36:24;;;;;;;18.95;10.13;;;4.40;99.90;;;;;;5005886;28;20046;-89
2022/01/31 01:38:49;;;;;;;21.42;10.30;;;4.30;99.90;;;;;;5005592;28;20049;-89
2022/01/31 01:41:15;;;;;;;24.02;12.00;;;4.30;99.90;;;;;;5005056;28;20052;-89
2022/01/31 01:43:41;;;;;;;20.08;10.52;;;4.30;99.90;;;;;;5021037;28;20033;-88
2022/01/31 01:46:06;;;;;;;17.63;10.45;;;4.30;99.90;;;;;;4987675;28;20133;-89
2022/01/31 01:48:32;;;;;;;24.35;11.88;;;4.30;99.90;;;;;;5003712;28;20390;-91
2022/01/31 01:50:59;;;;;;;19.90;11.10;;;4.30;99.90;;;;;;4988540;28;20046;-89
2022/01/31 01:53:25;;;;;;;19.95;12.18;;;4.30;99.90;;;;;;5021637;28;20400;-91
2022/01/31 01:55:53;;;;;;;21.05;12.23;;;4.20;99.90;;;;;;4987251;28;20045;-89
2022/01/31 01:58:20;;;;;;;23.50;12.93;;;4.20;99.90;;;;;;5004251;28;20451;-88
2022/01/31 02:00:51;;;;;;;20.17;12.23;;;4.20;99.90;;;;;;5004222;28;20118;-88
2022/01/31 02:03:21;;;;;;;20.67;12.57;;;4.10;99.90;;;;;;5005609;28;20046;-87
2022/01/31 02:05:47;;;;;;;22.45;12.98;;;4.00;99.90;;;;;;5003672;28;20046;-88
2022/01/31 02:08:14;;;;;;;20.67;13.15;;;3.90;99.90;;;;;;5006164;28;20046;-91
2022/01/31 02:10:41;;;;;;;19.42;13.15;;;3.90;99.90;;;;;;5009085;28;20046;-87
2022/01/31 02:13:08;;;;;;;23.20;14.27;;;3.80;99.90;;;;;;5007626;28;20407;-89
2022/01/31 02:15:34;;;;;;;19.58;13.02;;;3.80;99.90;;;;;;5007851;28;20046;-88
2022/01/31 02:18:00;;;;;;;24.40;13.88;;;3.80;99.90;;;;;;5007338;28;20046;-87
2022/01/31 02:20:26;;;;;;;25.77;13.60;;;3.80;99.90;;;;;;5009572;28;20086;-87
2022/01/31 02:22:52;;;;;;;22.73;14.15;;;3.80;99.90;;;;;;5010958;28;20143;-86
2022/01/31 02:25:17;;;;;;;23.30;13.23;;;3.80;99.90;;;;;;5009022;28;20061;-88
2022/01/31 02:27:44;;;;;;;23.65;14.20;;;3.80;99.90;;;;;;5028892;28;20057;-87
2022/01/31 02:30:15;;;;;;;21.48;13.02;;;3.80;99.90;;;;;;5027410;28;20053;-87
2022/01/31 02:32:41;;;;;;;20.80;13.70;;;3.80;99.90;;;;;;4994066;28;20068;-88
2022/01/31 02:35:08;;;;;;;22.42;13.00;;;3.80;99.90;;;;;;4993565;28;20037;-88
2022/01/31 02:37:34;;;;;;;20.27;12.05;;;3.90;99.90;;;;;;4995209;28;20062;-88
2022/01/31 02:39:59;;;;;;;20.95;11.98;;;3.90;99.90;;;;;;5026109;28;20045;-87
2022/01/31 02:42:26;;;;;;;19.23;12.02;;;3.90;99.90;;;;;;4994776;28;20041;-88
2022/01/31 02:44:51;;;;;;;19.13;11.68;;;3.90;99.90;;;;;;5010241;28;20402;-87
2022/01/31 02:47:29;;;;;;;18.15;10.77;;;3.90;99.90;;;;;;4994095;28;20087;-87
2022/01/31 02:50:00;;;;;;;17.58;10.55;;;3.90;99.90;;;;;;5026330;28;20053;-87
2022/01/31 02:52:30;;;;;;;17.15;10.70;;;3.90;99.90;;;;;;4994287;28;20124;-87
2022/01/31 02:54:56;;;;;;;16.20;9.57;;;3.90;99.90;;;;;;5025884;28;20171;-87
2022/01/31 02:57:22;;;;;;;15.48;9.38;;;3.90;99.90;;;;;;4993401;28;20512;-87
2022/01/31 02:59:47;;;;;;;15.38;8.90;;;3.90;99.90;;;;;;5009773;28;20060;-87
2022/01/31 03:02:14;;;;;;;13.52;7.90;;;3.80;99.90;;;;;;5026515;28;20049;-88
2022/01/31 03:04:40;;;;;;;15.65;8.05;;;3.80;99.90;;;;;;5009910;28;20076;-87
2022/01/31 03:07:06;;;;;;;15.60;8.57;;;3.80;99.90;;;;;;5010186;28;20406;-86
2022/01/31 03:09:31;;;;;;;12.77;7.82;;;3.80;99.90;;;;;;5009725;28;20043;-86
2022/01/31 03:11:57;;;;;;;11.88;8.38;;;3.90;99.90;;;;;;5024935;28;20057;-86
2022/01/31 03:14:23;;;;;;;13.73;8.43;;;3.90;99.90;;;;;;4993427;28;20041;-87
2022/01/31 03:16:49;;;;;;;14.23;8.57;;;3.90;99.90;;;;;;5009386;28;20167;-89
2022/01/31 03:19:17;;;;;;;16.52;9.55;;;3.90;99.90;;;;;;5008926;28;20065;-87
2022/01/31 03:21:43;;;;;;;12.70;8.52;;;3.90;99.90;;;;;;5008146;28;20054;-86
2022/01/31 03:24:10;;;;;;;14.02;8.55;;;3.90;99.90;;;;;;5025046;28;20045;-87
2022/01/31 03:26:36;;;;;;;14.43;8.50;;;3.90;99.90;;;;;;5026174;28;20049;-86
2022/01/31 03:29:02;;;;;;;15.45;9.48;;;4.00;99.90;;;;;;5008157;28;20140;-87
2022/01/31 03:31:28;;;;;;;15.55;9.00;;;4.00;99.90;;;;;;5009336;28;20056;-86
2022/01/31 03:33:54;;;;;;;13.55;8.23;;;4.10;99.90;;;;;;4988012;28;20059;-85
2022/01/31 03:36:20;;;;;;;16.67;9.60;;;4.10;99.90;;;;;;5009447;28;20139;-87
2022/01/31 03:38:46;;;;;;;15.00;8.68;;;4.10;99.90;;;;;;5008798;28;20132;-87
2022/01/31 03:41:18;;;;;;;16.00;9.80;;;4.20;99.90;;;;;;5009950;28;20049;-86
2022/01/31 03:43:44;;;;;;;15.75;8.52;;;4.30;99.90;;;;;;4992528;28;20033;-88
2022/01/31 03:46:10;;;;;;;16.77;8.98;;;4.30;99.90;;;;;;5009236;28;20113;-87
2022/01/31 03:48:36;;;;;;;17.00;9.05;;;4.40;99.90;;;;;;4992589;28;20061;-87
2022/01/31 03:51:03;;;;;;;19.08;8.88;;;4.50;99.90;;;;;;5009564;28;20060;-88
2022/01/31 03:53:30;;;;;;;19.10;8.68;;;4.60;99.90;;;;;;5008099;28;20148;-88
2022/01/31 03:55:55;;;;;;;20.17;8.73;;;4.80;99.90;;;;;;5008725;28;20041;-88
2022/01/31 03:58:21;;;;;;;19.27;8.10;;;4.90;99.90;;;;;;5008598;28;20049;-88
2022/01/31 04:00:47;;;;;;;17.48;7.50;;;5.00;99.90;;;;;;5023579;28;20045;-88
2022/01/31 04:03:13;;;;;;;20.38;7.45;;;5.10;99.90;;;;;;4991495;28;20045;-88
2022/01/31 04:05:39;;;;;;;22.52;7.40;;;5.20;99.90;;;;;;5008767;28;20060;-88
2022/01/31 04:08:06;;;;;;;19.98;7.25;;;5.30;99.90;;;;;;5007193;28;20057;-88
2022/01/31 04:10:32;;;;;;;19.00;6.57;;;5.40;99.90;;;;;;4992462;28;20041;-88
2022/01/31 04:12:58;;;;;;;17.27;6.43;;;5.40;99.90;;;;;;5008000;28;20414;-89
2022/01/31 04:15:24;;;;;;;25.83;7.28;;;5.50;99.90;;;;;;5008094;28;20048;-87
2022/01/31 04:17:49;;;;;;;17.15;4.82;;;5.70;99.90;;;;;;4991981;28;20048;-88
2022/01/31 04:20:16;;;;;;;19.98;4.68;;;5.70;99.90;;;;;;5008439;28;20160;-88
2022/01/31 04:22:49;;;;;;;18.63;4.57;;;5.80;99.90;;;;;;5007802;28;20053;-90
2022/01/31 04:25:41;;;;;;;17.70;4.93;;;5.90;99.90;;;;;;4989664;28;20053;-89
2022/01/31 04:28:16;;;;;;;;;;;6.00;99.90;;;;;;5008851;28;20162;-88
2022/01/31 04:30:49;;;;;;;19.08;4.20;;;6.00;99.90;;;;;;4991557;28;20002;-87
2022/01/31 04:33:15;;;;;;;15.10;4.25;;;6.00;99.90;;;;;;4990817;28;20077;-88
2022/01/31 04:35:40;;;;;;;19.60;4.38;;;6.10;99.90;;;;;;5025559;28;20175;-87
2022/01/31 04:38:06;;;;;;;20.55;4.20;;;6.10;99.90;;;;;;5007738;28;20183;-90
2022/01/31 04:40:31;;;;;;;16.00;3.83;;;6.10;99.90;;;;;;5008820;28;20554;-88
2022/01/31 04:42:57;;;;;;;15.25;4.15;;;6.20;99.90;;;;;;5007697;28;20390;-88
2022/01/31 04:45:23;;;;;;;17.90;3.95;;;6.20;99.90;;;;;;5007706;28;20132;-88
2022/01/31 04:47:48;;;;;;;14.90;3.25;;;6.20;99.90;;;;;;5026211;28;20184;-92
2022/01/31 04:50:14;;;;;;;22.20;5.07;;;6.20;99.90;;;;;;5007546;28;21088;-88
2022/01/31 04:52:42;;;;;;;15.13;3.78;;;6.20;99.90;;;;;;5009200;28;20513;-91
2022/01/31 04:55:11;;;;;;;18.40;3.80;;;6.20;99.90;;;;;;5023650;28;20406;-87
2022/01/31 04:57:37;;;;;;;16.80;3.78;;;6.10;99.90;;;;;;5006721;28;20049;-91
2022/01/31 05:00:07;;;;;;;22.65;4.43;;;6.10;99.90;;;;;;5006573;28;20049;-89
2022/01/31 05:02:34;;;;;;;18.38;3.65;;;6.10;99.90;;;;;;4991172;28;20037;-89
2022/01/31 05:04:59;;;;;;;17.98;3.85;;;6.10;99.90;;;;;;5008391;28;20076;-87
2022/01/31 05:07:25;;;;;;;20.05;3.95;;;6.00;99.90;;;;;;4994525;28;20473;-90
2022/01/31 05:09:51;;;;;;;14.43;2.95;;;6.10;99.90;;;;;;5003122;28;20049;-87
2022/01/31 05:12:16;;;;;;;18.92;4.03;;;6.10;99.90;;;;;;5023629;28;20049;-89
2022/01/31 05:14:42;;;;;;;15.52;3.33;;;6.10;99.90;;;;;;5017826;28;20037;-88
2022/01/31 05:17:07;;;;;;;19.15;3.95;;;6.00;99.90;;;;;;5009706;28;20449;-91
2022/01/31 05:19:33;;;;;;;19.90;4.32;;;6.10;99.90;;;;;;5008433;28;20568;-88
2022/01/31 05:21:59;;;;;;;18.45;4.10;;;6.10;99.90;;;;;;5023062;28;20096;-88
2022/01/31 05:24:24;;;;;;;19.63;4.07;;;6.00;99.90;;;;;;5026960;28;20049;-89
2022/01/31 05:26:52;;;;;;;20.27;4.25;;;6.00;99.90;;;;;;5006562;28;20136;-89
2022/01/31 05:29:18;;;;;;;17.10;3.90;;;6.00;99.90;;;;;;5009360;28;20091;-89
2022/01/31 05:31:43;;;;;;;17.15;3.75;;;5.90;99.90;;;;;;4991412;28;20053;-89
2022/01/31 05:34:09;;;;;;;21.73;3.85;;;6.00;99.90;;;;;;4992463;28;20394;-90
2022/01/31 05:36:35;;;;;;;17.85;3.72;;;6.00;99.90;;;;;;5025963;28;20045;-88
2022/01/31 05:39:01;;;;;;;10.45;2.47;;;6.00;99.90;;;;;;5022580;28;20101;-93
2022/01/31 05:41:26;;;;;;;9.90;1.75;;;5.80;99.90;;;;;;5026144;28;20049;-91
2022/01/31 05:43:52;;;;;;;7.85;1.30;;;5.60;99.90;;;;;;5007764;28;20398;-88
2022/01/31 05:46:17;;;;;;;6.50;1.60;;;5.40;99.90;;;;;;5008146;28;20056;-89
2022/01/31 05:48:43;;;;;;;5.90;1.00;;;5.30;99.90;;;;;;5007716;28;20096;-90
2022/01/31 05:51:20;;;;;;;7.55;1.10;;;5.20;99.90;;;;;;5008502;28;20045;-91
2022/01/31 05:53:47;;;;;;;6.82;1.67;;;5.10;99.90;;;;;;5023203;28;20076;-89
2022/01/31 05:56:14;;;;;;;6.22;1.02;;;5.10;99.90;;;;;;5007363;28;20045;-88
2022/01/31 05:58:41;;;;;;;6.03;1.00;;;5.00;99.90;;;;;;4991645;28;20128;-86
2022/01/31 06:01:07;;;;;;;6.10;0.98;;;5.00;99.90;;;;;;5008015;28;20168;-90
2022/01/31 06:03:33;;;;;;;7.00;1.02;;;5.00;99.90;;;;;;4990996;28;20132;-91
2022/01/31 06:05:59;;;;;;;6.85;1.13;;;5.00;99.90;;;;;;4988730;28;20079;-92
2022/01/31 06:08:24;;;;;;;5.60;1.08;;;5.00;99.90;;;;;;5007638;28;20501;-90
2022/01/31 06:10:50;;;;;;;6.35;0.90;;;4.90;99.90;;;;;;5007255;28;20041;-88
2022/01/31 06:13:22;;;;;;;9.05;1.45;;;5.00;99.90;;;;;;5007847;28;20129;-91
2022/01/31 06:15:48;;;;;;;6.07;1.15;;;5.00;99.90;;;;;;5006306;28;20126;-88
2022/01/31 06:18:13;;;;;;;8.10;1.23;;;5.00;99.90;;;;;;5006869;28;20129;-85
2022/01/31 06:20:40;;;;;;;7.82;1.17;;;5.00;99.90;;;;;;5004672;28;20132;-89
2022/01/31 06:23:06;;;;;;;9.55;1.42;;;5.00;99.90;;;;;;5025137;28;20443;-87
2022/01/31 06:25:32;;;;;;;8.63;1.70;;;5.00;99.90;;;;;;4989808;28;20117;-88
2022/01/31 06:27:57;;;;;;;11.95;1.70;;;5.00;99.90;;;;;;5023376;28;20407;-86
2022/01/31 06:30:24;;;;;;;10.52;2.15;;;5.00;99.90;;;;;;5006891;28;20053;-87
2022/01/31 06:32:50;;;;;;;11.13;1.75;;;5.00;99.90;;;;;;5007734;28;20083;-88
2022/01/31 06:35:17;;;;;;;11.82;2.05;;;5.00;99.90;;;;;;5008253;28;20491;-89
2022/01/31 06:37:43;;;;;;;13.10;2.35;;;5.10;99.90;;;;;;4990288;28;20037;-90
2022/01/31 06:40:09;;;;;;;10.07;2.10;;;5.10;99.90;;;;;;5006645;28;20452;-88
2022/01/31 06:42:34;;;;;;;9.38;1.77;;;5.20;99.90;;;;;;4991761;28;21534;-90
2022/01/31 06:45:00;;;;;;;14.18;2.47;;;5.20;99.90;;;;;;5006777;28;20084;-88
2022/01/31 06:47:27;;;;;;;14.95;2.80;;;5.20;99.90;;;;;;5021846;28;20060;-91
2022/01/31 06:49:52;;;;;;;14.65;2.28;;;5.30;99.90;;;;;;5003391;28;20042;-91
2022/01/31 06:52:18;;;;;;;12.75;2.58;;;5.30;99.90;;;;;;5007292;28;20056;-91
2022/01/31 06:54:44;;;;;;;16.63;2.70;;;5.30;99.90;;;;;;5008245;28;20096;-91
2022/01/31 06:57:10;;;;;;;14.88;2.42;;;5.40;99.90;;;;;;4993351;28;20056;-88
2022/01/31 06:59:35;;;;;;;12.80;2.90;;;5.40;99.90;;;;;;5008948;28;20030;-88
2022/01/31 07:02:01;;;;;;;15.88;2.65;;;5.40;99.90;;;;;;5009306;28;20056;-88
2022/01/31 07:04:27;;;;;;;18.73;3.45;;;5.40;99.90;;;;;;5010098;28;20049;-90
2022/01/31 07:06:52;;;;;;;15.05;2.72;;;5.40;99.90;;;;;;5009667;28;20071;-92
2022/01/31 07:09:18;;;;;;;13.07;2.67;;;5.40;99.90;;;;;;5010793;28;20053;-87
2022/01/31 07:11:44;;;;;;;14.13;2.45;;;5.40;99.90;;;;;;5008653;28;20045;-89
2022/01/31 07:14:42;;;;;;;11.82;2.05;;;5.40;99.90;;;;;;4992619;28;20401;-90
2022/01/31 07:17:03;;;;;;;;;;;5.40;99.90;;;;;;5003962;28;20045;-88
2022/01/31 07:19:32;;;;;;;12.05;1.85;;;5.40;99.90;;;;;;5008961;28;20020;-88
2022/01/31 07:21:58;;;;;;;11.95;2.00;;;5.40;99.90;;;;;;5024899;28;20073;-87
2022/01/31 07:24:31;;;;;;;7.90;1.65;;;5.40;99.90;;;;;;5024884;28;20056;-89
2022/01/31 07:26:57;;;;;;;9.43;1.83;;;5.50;99.90;;;;;;4992662;28;20049;-87
2022/01/31 07:29:23;;;;;;;8.88;1.70;;;5.40;99.90;;;;;;4987906;28;20037;-91
2022/01/31 07:31:50;;;;;;;9.55;1.40;;;5.40;99.90;;;;;;4990742;28;20552;-86
2022/01/31 07:34:17;;;;;;;10.75;1.95;;;5.40;99.90;;;;;;5021800;28;20501;-86
2022/01/31 07:36:44;;;;;;;7.38;1.35;;;5.40;99.90;;;;;;5006524;28;20045;-88
2022/01/31 07:39:11;;;;;;;6.28;1.35;;;5.30;99.90;;;;;;5009330;28;20262;-87
2022/01/31 07:41:37;;;;;;;7.18;1.40;;;5.30;99.90;;;;;;5024698;28;20441;-86
2022/01/31 07:44:02;;;;;;;7.72;1.30;;;5.30;99.90;;;;;;5009140;28;20385;-87
2022/01/31 07:46:28;;;;;;;11.50;1.75;;;5.30;99.90;;;;;;5008472;28;20124;-87
2022/01/31 07:48:54;;;;;;;8.95;1.73;;;5.30;99.90;;;;;;5021980;28;20049;-88
2022/01/31 07:51:21;;;;;;;10.23;1.77;;;5.30;99.90;;;;;;5002002;28;20543;-87
2022/01/31 07:53:47;;;;;;;10.40;1.80;;;5.20;99.90;;;;;;5008671;28;20116;-87
2022/01/31 07:56:15;;;;;;;9.68;1.58;;;5.20;99.90;;;;;;5023295;28;20037;-87
2022/01/31 07:58:41;;;;;;;9.48;2.08;;;5.20;99.90;;;;;;5024442;28;20053;-87
2022/01/31 08:01:07;;;;;;;10.68;1.90;;;5.30;99.90;;;;;;5006920;28;20544;-87
2022/01/31 08:03:34;;;;;;;12.35;2.15;;;5.30;99.90;;;;;;5007282;28;20469;-88
2022/01/31 08:05:59;;;;;;;10.82;1.92;;;5.30;99.90;;;;;;5006373;28;20037;-87
2022/01/31 08:08:28;;;;;;;11.77;2.75;;;5.40;99.90;;;;;;5010955;28;20780;-87
2022/01/31 08:10:55;;;;;;;14.68;2.25;;;5.40;99.90;;;;;;5026266;28;20053;-87
2022/01/31 08:13:20;;;;;;;13.23;2.22;;;5.40;99.90;;;;;;5025529;28;20430;-87
2022/01/31 08:16:01;;;;;;;13.98;3.05;;;5.50;99.90;;;;;;5004729;28;20052;-87
2022/01/31 08:18:27;;;;;;;13.63;2.42;;;5.50;99.90;;;;;;5005538;28;20410;-87
2022/01/31 08:20:53;;;;;;;14.68;2.33;;;5.60;99.90;;;;;;5006360;28;20046;-88
2022/01/31 08:23:18;;;;;;;14.10;2.65;;;5.60;99.90;;;;;;5023567;28;20100;-87
2022/01/31 08:25:49;;;;;;;16.70;2.65;;;5.60;99.90;;;;;;5007267;28;20852;-87
2022/01/31 08:28:21;;;;;;;13.80;3.33;;;5.70;99.90;;;;;;5005382;28;20037;-86
2022/01/31 08:31:11;;;;;;;17.30;3.17;;;5.70;99.90;;;;;;4988711;28;20458;-87
2022/01/31 08:33:42;;;;;;;14.35;2.88;;;5.70;99.90;;;;;;5007173;28;20544;-87
2022/01/31 08:36:08;;;;;;;14.50;3.10;;;5.70;99.90;;;;;;4991794;28;20056;-86
2022/01/31 08:38:36;;;;;;;13.85;4.05;;;5.80;99.90;;;;;;5008490;28;20037;-87
2022/01/31 08:41:02;;;;;;;16.70;3.97;;;5.90;99.90;;;;;;5006630;28;20037;-86
2022/01/31 08:43:28;;;;;;;13.57;3.40;;;5.90;99.90;;;;;;5007004;28;20406;-87
2022/01/31 08:45:55;;;;;;;16.70;3.85;;;6.00;99.90;;;;;;5005778;28;20049;-87
2022/01/31 08:48:21;;;;;;;16.55;3.92;;;6.00;99.90;;;;;;5022394;28;20418;-86
2022/01/31 08:50:47;;;;;;;17.05;3.45;;;6.10;99.90;;;;;;5006477;28;20061;-86
2022/01/31 08:53:13;;;;;;;16.95;3.03;;;6.10;99.90;;;;;;5006998;28;20442;-86
2022/01/31 08:55:45;;;;;;;17.17;4.28;;;6.10;99.90;;;;;;5022728;28;20045;-86
2022/01/31 08:58:11;;;;;;;16.50;3.30;;;6.20;99.90;;;;;;5023168;28;20037;-86
2022/01/31 09:00:37;;;;;;;15.38;2.70;;;6.20;99.90;;;;;;5009733;28;20083;-87
2022/01/31 09:03:39;;;;;;;19.20;4.10;;;6.20;99.90;;;;;;5027133;28;20104;-89
2022/01/31 09:05:52;;;;;;;17.65;4.35;;;6.30;99.90;;;;;;5020375;28;20115;-87
2022/01/31 09:08:17;;;;;;;12.23;2.42;;;6.20;99.90;;;;;;5016299;28;20053;-88
2022/01/31 09:10:44;;;;;;;13.90;3.40;;;6.20;99.90;;;;;;4997647;28;20041;-88
2022/01/31 09:13:12;;;;;;;11.80;2.35;;;6.30;99.90;;;;;;5007288;28;20143;-89
2022/01/31 09:15:38;;;;;;;14.50;2.85;;;6.30;99.90;;;;;;5006512;28;20037;-87
2022/01/31 09:18:07;;;;;;;11.52;2.78;;;6.40;99.90;;;;;;5021903;28;20045;-88
2022/01/31 09:20:32;;;;;;;12.10;2.15;;;6.50;99.90;;;;;;4991164;28;20038;-87
2022/01/31 09:22:58;;;;;;;10.65;2.15;;;6.50;99.90;;;;;;5005937;28;20080;-87
2022/01/31 09:25:26;;;;;;;11.55;2.13;;;6.50;99.90;;;;;;4990761;28;20045;-86
2022/01/31 09:27:52;;;;;;;10.63;2.28;;;6.60;99.90;;;;;;5007526;28;20426;-88
2022/01/31 09:30:20;;;;;;;8.75;2.00;;;6.60;99.90;;;;;;5007643;28;20033;-88
2022/01/31 09:32:46;;;;;;;11.80;2.25;;;6.60;99.90;;;;;;5004712;28;20105;-88
2022/01/31 09:35:12;;;;;;;9.07;1.90;;;6.60;99.90;;;;;;5022333;28;20052;-87
2022/01/31 09:37:38;;;;;;;11.98;2.20;;;6.70;99.90;;;;;;5006796;28;20099;-87
2022/01/31 09:40:04;;;;;;;9.50;1.92;;;6.70;99.90;;;;;;5006791;28;20060;-90
2022/01/31 09:42:57;;;;;;;12.07;2.15;;;6.80;99.90;;;;;;5023102;28;20050;-87
2022/01/31 09:45:33;;;;;;;11.15;1.83;;;6.80;99.90;;;;;;5004643;28;20060;-86
2022/01/31 09:50:27;;;;;;;13.70;2.50;;;6.80;99.90;;;;;;5022473;28;20076;-87
2022/01/31 09:52:54;;;;;;;8.18;1.88;;;6.90;99.90;;;;;;5006667;28;20087;-86
2022/01/31 09:55:25;;;;;;;10.50;2.00;;;7.00;99.90;;;;;;5006586;28;20065;-88
2022/01/31 09:57:51;;;;;;;11.73;1.92;;;7.00;99.90;;;;;;4990468;28;20103;-87
2022/01/31 10:00:17;;;;;;;11.10;1.67;;;7.00;99.90;;;;;;5006728;28;20037;-88
2022/01/31 10:03:08;;;;;;;11.82;2.47;;;7.00;99.90;;;;;;5006001;28;20056;-87
2022/01/31 10:05:35;;;;;;;9.75;1.80;;;7.10;99.90;;;;;;5005678;28;20048;-86
2022/01/31 10:08:12;;;;;;;11.18;2.00;;;7.10;99.90;;;;;;5005011;28;20045;-87
2022/01/31 10:10:40;;;;;;;12.50;2.05;;;7.10;99.90;;;;;;5004885;28;20053;-88
2022/01/31 10:16:30;;;;;;;12.35;2.15;;;7.10;99.90;;;;;;5004955;28;20057;-88
2022/01/31 10:19:08;;;;;;;8.98;2.00;;;7.10;99.90;;;;;;5004532;28;20103;-87
2022/01/31 10:21:58;;;;;;;10.38;2.08;;;7.10;99.90;;;;;;4990331;28;20064;-90
2022/01/31 10:24:26;;;;;;;11.20;1.90;;;7.20;99.90;;;;;;5022336;28;21274;-87
2022/01/31 10:26:52;;;;;;;11.00;1.98;;;7.20;99.90;;;;;;5006129;28;20046;-86
2022/01/31 10:29:21;;;;;;;11.70;2.80;;;7.20;99.90;;;;;;4991301;28;20099;-88
2022/01/31 10:32:06;;;;;;;11.35;2.10;;;7.20;99.90;;;;;;5010402;28;20072;-87
2022/01/31 10:35:03;;;;;;;9.43;1.95;;;7.20;99.90;;;;;;4992282;28;20051;-87
2022/01/31 10:37:31;;;;;;;9.93;1.88;;;7.20;99.90;;;;;;4997298;28;20057;-87
2022/01/31 10:51:29;;;;;;;8.00;1.67;;;7.50;99.90;;;;;;5009652;28;21414;-89
2022/01/31 10:54:13;;;;;;;6.75;1.65;;;7.50;99.90;;;;;;5010111;28;20390;-89
2022/01/31 10:56:45;;;;;;;6.90;1.50;;;7.40;99.90;;;;;;4994963;28;20176;-89
2022/01/31 10:59:13;;;;;;;9.65;1.83;;;7.40;99.90;;;;;;5009511;28;20037;-89
2022/01/31 11:01:40;;;;;;;7.80;1.55;;;7.40;99.90;;;;;;5009836;28;20390;-87
2022/01/31 11:04:10;;;;;;;6.45;1.52;;;7.40;99.90;;;;;;5007814;28;20525;-87
2022/01/31 11:06:39;;;;;;;7.95;1.98;;;7.50;99.90;;;;;;5009650;28;20057;-88
2022/01/31 11:09:08;;;;;;;9.35;1.70;;;7.50;99.90;;;;;;5008692;28;20078;-88
2022/01/31 11:11:36;;;;;;;10.35;1.98;;;7.50;99.90;;;;;;4992346;28;20104;-91
2022/01/31 11:14:03;;;;;;;11.13;2.22;;;7.50;99.90;;;;;;5009820;28;20123;-89
2022/01/31 11:16:30;;;;;;;10.70;1.92;;;7.50;99.90;;;;;;5009017;28;20037;-87
2022/01/31 11:19:02;;;;;;;9.75;2.65;;;7.60;99.90;;;;;;5007093;28;20599;-90
2022/01/31 11:21:32;;;;;;;8.25;1.80;;;7.60;99.90;;;;;;5008135;28;20054;-88
2022/01/31 11:24:03;;;;;;;12.00;2.13;;;7.60;99.90;;;;;;5009390;28;20160;-88
2022/01/31 11:26:36;;;;;;;12.18;2.50;;;7.70;99.90;;;;;;5008918;28;20124;-90
2022/01/31 11:29:04;;;;;;;12.30;2.42;;;7.70;99.90;;;;;;5007978;28;20037;-89
2022/01/31 11:31:30;;;;;;;12.02;2.20;;;7.80;99.90;;;;;;5009423;28;20497;-91
2022/01/31 11:33:58;;;;;;;14.38;2.85;;;7.90;99.90;;;;;;4992766;28;20809;-86
2022/01/31 11:36:24;;;;;;;10.98;2.30;;;8.00;99.90;;;;;;5024218;28;20076;-87
2022/01/31 11:38:50;;;;;;;12.70;2.58;;;8.00;99.90;;;;;;4992681;28;20091;-87
2022/01/31 11:41:17;;;;;;;11.80;2.47;;;8.10;99.90;;;;;;5008318;28;20129;-88
2022/01/31 11:43:53;;;;;;;9.63;2.55;;;8.20;99.90;;;;;;5025805;28;20406;-86
2022/01/31 11:46:24;;;;;;;11.52;2.13;;;8.40;99.90;;;;;;5009235;28;20091;-87
2022/01/31 11:48:52;;;;;;;12.32;2.58;;;8.50;99.90;;;;;;5008359;28;20057;-86
2022/01/31 11:51:19;;;;;;;11.27;2.10;;;8.70;99.90;;;;;;5007706;28;20045;-85
2022/01/31 11:53:45;;;;;;;15.73;2.78;;;8.70;99.90;;;;;;5026250;28;20045;-86
2022/01/31 11:56:17;;;;;;;12.10;2.97;;;8.80;99.90;;;;;;5025109;28;20422;-85
2022/01/31 11:58:47;;;;;;;13.45;2.70;;;8.70;99.90;;;;;;4990928;28;20488;-85
2022/01/31 12:01:14;;;;;;;11.50;3.13;;;8.70;99.90;;;;;;5006094;28;20041;-85
2022/01/31 12:03:51;;;;;;;13.45;2.65;;;8.70;99.90;;;;;;5008253;28;20050;-84
2022/01/31 12:06:23;;;;;;;13.27;2.67;;;8.80;99.90;;;;;;5006790;28;20050;-87
2022/01/31 12:08:51;;;;;;;12.63;2.95;;;8.90;99.90;;;;;;5026619;28;20820;-86
2022/01/31 12:11:23;;;;;;;12.27;2.50;;;8.90;99.90;;;;;;5026659;28;20049;-86
2022/01/31 12:13:53;;;;;;;13.13;2.30;;;8.90;99.90;;;;;;4991500;28;20048;-86
2022/01/31 12:19:32;;;;;;;10.50;2.10;;;9.00;99.90;;;;;;5023311;28;20060;-86
2022/01/31 12:22:03;;;;;;;11.63;2.25;;;9.10;99.90;;;;;;5004897;28;20058;-87
2022/01/31 12:24:33;;;;;;;14.20;3.15;;;9.00;99.90;;;;;;5007752;28;20069;-87
2022/01/31 12:27:05;;;;;;;11.73;2.38;;;9.00;99.90;;;;;;5007008;28;20123;-87
2022/01/31 12:29:34;;;;;;;9.27;1.92;;;9.00;99.90;;;;;;5008801;28;20681;-85
2022/01/31 12:32:11;;;;;;;10.57;2.20;;;9.00;99.90;;;;;;5007554;28;20041;-86
2022/01/31 12:34:39;;;;;;;9.88;2.33;;;9.00;99.90;;;;;;5007029;28;20045;-86
2022/01/31 12:37:23;;;;;;;10.43;2.03;;;8.90;99.90;;;;;;5026077;28;20060;-85
2022/01/31 12:40:01;;;;;;;13.05;2.72;;;8.80;99.90;;;;;;5005086;28;20136;-85
2022/01/31 12:45:51;;;;;;;13.30;2.13;;;8.80;99.90;;;;;;5007915;28;20384;-85
2022/01/31 12:48:25;;;;;;;8.52;1.90;;;8.70;99.90;;;;;;5006278;28;20055;-85
2022/01/31 12:50:51;;;;;;;12.70;2.30;;;8.70;99.90;;;;;;5007923;28;20159;-88
2022/01/31 12:53:23;;;;;;;9.45;1.80;;;8.70;99.90;;;;;;5018260;28;20279;-86
2022/01/31 12:56:09;;;;;;;12.50;3.45;;;8.70;99.90;;;;;;5039892;28;20447;-84
2022/01/31 12:58:36;;;;;;;13.10;2.78;;;8.70;99.90;;;;;;5016382;28;20037;-87
2022/01/31 13:01:23;;;;;;;9.68;2.22;;;8.70;99.90;;;;;;4996440;28;20103;-86
2022/01/31 13:04:04;;;;;;;9.68;1.88;;;8.70;99.90;;;;;;4989914;28;20057;-86
2022/01/31 13:06:41;;;;;;;11.27;2.20;;;8.70;99.90;;;;;;5007015;28;20050;-87
2022/01/31 13:09:30;;;;;;;9.07;2.00;;;8.70;99.90;;;;;;5006921;28;20060;-86
2022/01/31 13:11:56;;;;;;;12.35;2.35;;;8.70;99.90;;;;;;5006376;28;20049;-87
2022/01/31 13:14:26;;;;;;;12.13;2.33;;;8.70;99.90;;;;;;5007277;28;20099;-85
2022/01/31 13:16:58;;;;;;;13.38;2.10;;;8.80;99.90;;;;;;5006575;28;20128;-87